Time;durP1;ratioP1;P1;durP2;ratioP2;P2;SDS_P1;SDS_P2;PMS_P1;PMS_P2;Temp;Humidity;BMP_temperature;BMP_pressure;BME280_temperature;BME280_humidity;BME280_pressure;Samples;Min_cycle;Max_cycle;Signal;HPM_P1;HPM_P2
2022/05/13 00:01:14;;;;;;;37.42;34.53;;;;;;;10.46;100.00;101273.59;4958354;28;20067;-93
2022/05/13 00:03:41;;;;;;;38.03;35.25;;;;;;;10.37;100.00;101270.25;4955782;29;20054;-92
2022/05/13 00:06:11;;;;;;;40.17;37.08;;;;;;;10.42;100.00;101275.00;4955940;29;20052;-91
2022/05/13 00:08:40;;;;;;;42.55;39.10;;;;;;;10.82;100.00;101270.81;4959923;29;20070;-92
2022/05/13 00:11:15;;;;;;;44.03;40.60;;;;;;;11.13;100.00;101261.59;4948478;29;20059;-92
2022/05/13 00:13:44;;;;;;;38.45;35.50;;;;;;;10.78;100.00;101265.06;4955682;29;20052;-92
2022/05/13 00:16:18;;;;;;;40.67;37.53;;;;;;;11.07;100.00;101262.38;4960336;29;20040;-92
2022/05/13 00:18:47;;;;;;;44.25;41.05;;;;;;;11.10;100.00;101268.13;4953641;29;20115;-92
2022/05/13 00:21:16;;;;;;;45.83;42.08;;;;;;;11.06;100.00;101263.41;4956048;29;20066;-91
2022/05/13 00:23:43;;;;;;;44.60;41.38;;;;;;;10.98;100.00;101259.91;4959620;29;20040;-91
2022/05/13 00:26:12;;;;;;;43.05;39.67;;;;;;;10.78;100.00;101258.94;4955099;28;20134;-91
2022/05/13 00:28:39;;;;;;;40.75;37.83;;;;;;;10.88;100.00;101267.38;4947921;29;20050;-93
2022/05/13 00:31:07;;;;;;;36.35;33.53;;;;;;;11.00;100.00;101262.34;4954635;29;20051;-91
2022/05/13 00:33:36;;;;;;;39.00;36.10;;;;;;;10.94;100.00;101255.97;4956145;29;20051;-92
2022/05/13 00:36:04;;;;;;;38.38;35.67;;;;;;;11.10;100.00;101252.16;4958503;29;20051;-92
2022/05/13 00:38:32;;;;;;;38.40;35.50;;;;;;;11.00;100.00;101252.53;4963146;29;20103;-93
2022/05/13 00:41:03;;;;;;;37.40;35.00;;;;;;;11.17;100.00;101258.38;4960324;29;20087;-92
2022/05/13 00:43:51;;;;;;;37.30;35.00;;;;;;;11.21;100.00;101248.97;4963757;29;20051;-92
2022/05/13 00:46:22;;;;;;;39.63;36.95;;;;;;;11.18;100.00;101252.00;4961827;29;20074;-92
2022/05/13 00:48:51;;;;;;;43.00;40.15;;;;;;;11.60;100.00;101258.13;4953948;29;20047;-92
2022/05/13 00:51:21;;;;;;;38.47;35.92;;;;;;;11.48;100.00;101254.41;4959261;29;20063;-92
2022/05/13 00:53:50;;;;;;;35.88;33.55;;;;;;;11.46;100.00;101253.78;4959606;29;20445;-92
2022/05/13 00:56:23;;;;;;;37.55;35.17;;;;;;;11.65;100.00;101260.22;4954885;29;20075;-91
2022/05/13 00:58:54;;;;;;;37.80;35.40;;;;;;;11.51;100.00;101250.53;4948823;29;20051;-92
2022/05/13 01:01:26;;;;;;;41.13;38.55;;;;;;;11.02;100.00;101255.00;4953571;29;20051;-93
2022/05/13 01:04:14;;;;;;;33.50;31.40;;;;;;;11.51;100.00;101245.22;4960851;29;20059;-92
2022/05/13 01:06:58;;;;;;;35.42;33.10;;;;;;;11.66;100.00;101260.00;4949040;29;20120;-92
2022/05/13 01:09:32;;;;;;;35.95;33.45;;;;;;;11.62;100.00;101255.28;4952040;29;20067;-92
2022/05/13 01:12:03;;;;;;;215.75;106.80;;;;;;;11.72;100.00;101249.59;4957090;29;20057;-92
2022/05/13 01:14:40;;;;;;;80.63;55.60;;;;;;;11.73;100.00;101246.72;4958512;29;20059;-93
2022/05/13 01:20:38;;;;;;;38.05;35.65;;;;;;;10.71;100.00;101258.06;4962252;29;20050;-91
2022/05/13 01:23:30;;;;;;;39.20;35.80;;;;;;;10.91;100.00;101258.19;4963768;29;20070;-91
2022/05/13 01:28:51;;;;;;;38.05;35.15;;;;;;;10.93;100.00;101248.22;4957655;28;20090;-92
2022/05/13 01:31:26;;;;;;;37.83;34.83;;;;;;;10.96;100.00;101253.13;4952441;29;20137;-92
2022/05/13 01:33:56;;;;;;;36.35;33.78;;;;;;;10.66;100.00;101247.19;4958675;29;20055;-92
2022/05/13 01:36:23;;;;;;;38.03;35.30;;;;;;;10.73;100.00;101245.41;4951442;29;20047;-93
2022/05/13 01:38:53;;;;;;;35.50;32.80;;;;;;;10.57;100.00;101256.34;4944256;29;20130;-92
2022/05/13 01:41:21;;;;;;;37.58;34.78;;;;;;;10.43;100.00;101253.56;4948108;29;20078;-93
2022/05/13 01:43:50;;;;;;;41.22;37.88;;;;;;;10.65;100.00;101254.34;4944748;29;20059;-93
2022/05/13 01:46:26;;;;;;;39.42;36.70;;;;;;;10.43;100.00;101253.56;4954937;29;20054;-92
2022/05/13 01:48:54;;;;;;;42.50;39.33;;;;;;;10.70;100.00;101254.56;4950287;29;20060;-91
2022/05/13 01:51:22;;;;;;;38.53;35.95;;;;;;;10.17;100.00;101245.34;4944689;29;20506;-92
2022/05/13 01:53:54;;;;;;;36.25;33.33;;;;;;;10.26;100.00;101246.84;4948058;29;20055;-92
2022/05/13 01:56:42;;;;;;;36.03;33.63;;;;;;;10.61;100.00;101250.44;4956457;29;20051;-92
2022/05/13 01:59:12;;;;;;;39.50;36.60;;;;;;;10.49;100.00;101254.63;4952105;29;20051;-92
2022/05/13 02:01:39;;;;;;;42.50;39.50;;;;;;;10.85;100.00;101251.81;5044614;23;20050;-93
2022/05/13 02:04:06;;;;;;;38.72;35.05;;;;;;;10.72;100.00;101249.09;4973061;28;20111;-93
2022/05/13 02:06:32;;;;;;;38.40;35.60;;;;;;;11.07;100.00;101247.25;4976270;28;20058;-92
2022/05/13 02:09:18;;;;;;;38.53;35.92;;;;;;;10.91;100.00;101239.59;4973451;28;20062;-92
2022/05/13 02:11:46;;;;;;;42.03;39.00;;;;;;;10.81;100.00;101250.59;4969877;28;20062;-93
2022/05/13 02:14:13;;;;;;;38.88;35.90;;;;;;;10.93;100.00;101246.38;4975477;28;20047;-92
2022/05/13 02:16:41;;;;;;;41.03;38.13;;;;;;;10.92;100.00;101243.88;4974144;28;20051;-92
2022/05/13 02:19:08;;;;;;;36.88;34.38;;;;;;;10.93;100.00;101249.03;4976751;28;20061;-93
2022/05/13 02:21:36;;;;;;;43.42;39.72;;;;;;;11.20;100.00;101250.00;4976268;28;20061;-93
2022/05/13 02:24:15;;;;;;;40.70;37.80;;;;;;;11.07;100.00;101259.72;4976718;28;20057;-92
2022/05/13 02:26:52;;;;;;;40.20;37.30;;;;;;;10.79;100.00;101257.91;4972187;28;20057;-92
2022/05/13 02:29:20;;;;;;;41.72;38.47;;;;;;;10.89;100.00;101253.09;4971716;28;20061;-92
2022/05/13 02:31:52;;;;;;;40.53;37.42;;;;;;;10.71;100.00;101252.75;4979254;28;20530;-92
2022/05/13 02:34:23;;;;;;;43.15;39.97;;;;;;;10.70;100.00;101257.22;4976727;28;20052;-92
2022/05/13 02:36:54;;;;;;;39.42;36.53;;;;;;;10.47;100.00;101252.16;4981600;28;20571;-92
2022/05/13 02:39:27;;;;;;;43.20;40.00;;;;;;;10.42;100.00;101249.25;4976411;28;20055;-92
2022/05/13 02:41:55;;;;;;;;;;;;;;;10.46;100.00;101244.38;4980497;28;20065;-92
2022/05/13 02:47:13;;;;;;;40.83;37.78;;;;;;;10.39;100.00;101254.13;4966966;28;20051;-93
2022/05/13 02:49:43;;;;;;;42.33;39.50;;;;;;;10.33;100.00;101253.06;4968315;28;20039;-92
2022/05/13 02:52:14;;;;;;;37.75;34.95;;;;;;;9.99;100.00;101249.25;4976176;28;20090;-92
2022/05/13 02:54:41;;;;;;;38.65;35.42;;;;;;;10.36;100.00;101251.88;4974182;28;20054;-92
2022/05/13 02:57:14;;;;;;;39.78;36.63;;;;;;;10.17;100.00;101250.66;4975733;28;20043;-93
2022/05/13 02:59:41;;;;;;;39.10;36.05;;;;;;;10.47;100.00;101249.53;4975971;28;20491;-92
2022/05/13 03:02:10;;;;;;;36.45;34.05;;;;;;;10.42;100.00;101253.75;4973567;28;20065;-93
2022/05/13 03:04:38;;;;;;;39.03;36.03;;;;;;;10.63;100.00;101256.38;4976536;28;20117;-91
2022/05/13 03:07:08;;;;;;;40.03;37.15;;;;;;;10.69;100.00;101262.75;4976385;28;20055;-93
2022/05/13 03:09:35;;;;;;;37.47;34.83;;;;;;;10.67;100.00;101256.81;4975860;28;20069;-92
2022/05/13 03:12:05;;;;;;;38.95;36.47;;;;;;;10.42;100.00;101259.88;4975950;28;20074;-92
2022/05/13 03:14:34;;;;;;;36.47;33.47;;;;;;;10.75;100.00;101259.31;4974703;28;20102;-93
2022/05/13 03:17:05;;;;;;;36.15;33.75;;;;;;;11.06;100.00;101266.06;4973766;28;20046;-92
2022/05/13 03:19:34;;;;;;;35.97;32.90;;;;;;;10.90;100.00;101264.53;4973230;28;20051;-92
2022/05/13 03:22:07;;;;;;;37.13;34.10;;;;;;;11.08;100.00;101270.19;4976856;28;20077;-92
2022/05/13 03:24:49;;;;;;;38.75;35.88;;;;;;;11.00;100.00;101260.50;4975350;28;20106;-93
2022/05/13 03:27:17;;;;;;;;;;;;;;;11.58;100.00;101260.16;4973602;28;20468;-92
2022/05/13 03:29:50;;;;;;;42.28;39.38;;;;;;;11.67;100.00;101260.81;4974240;28;19930;-93
2022/05/13 03:32:21;;;;;;;40.88;38.08;;;;;;;11.64;100.00;101269.19;4973560;28;20137;-93
2022/05/13 03:34:48;;;;;;;41.83;39.13;;;;;;;11.47;100.00;101258.09;4974375;28;20046;-93
2022/05/13 03:37:18;;;;;;;41.45;38.58;;;;;;;11.57;100.00;101263.84;4962198;28;20046;-93
2022/05/13 03:39:49;;;;;;;37.08;34.67;;;;;;;11.75;100.00;101268.63;4978776;28;20129;-92
2022/05/13 03:42:22;;;;;;;35.70;33.50;;;;;;;11.95;100.00;101267.88;4979309;28;20165;-94
2022/05/13 03:44:51;;;;;;;;;;;;;;;12.13;100.00;101260.97;4972654;28;20054;-92
2022/05/13 03:47:23;;;;;;;36.45;34.38;;;;;;;12.22;100.00;101277.56;4979063;28;19929;-92
2022/05/13 03:49:53;;;;;;;36.92;34.80;;;;;;;12.32;100.00;101266.53;4978887;28;20058;-93
2022/05/13 03:52:22;;;;;;;48.97;45.88;;;;;;;12.30;100.00;101271.22;4979533;28;20105;-92
2022/05/13 03:54:51;;;;;;;47.20;44.10;;;;;;;12.38;100.00;101273.69;4977645;28;20062;-93
2022/05/13 03:57:18;;;;;;;47.05;44.05;;;;;;;12.49;100.00;101282.91;4978247;28;20058;-94
2022/05/13 03:59:44;;;;;;;48.13;45.05;;;;;;;12.68;100.00;101289.25;4978873;28;20062;-92
2022/05/13 04:02:16;;;;;;;32.00;30.10;;;;;;;12.69;100.00;101299.72;4978244;28;20463;-92
2022/05/13 04:10:11;;;;;;;35.13;32.35;;;;;;;13.04;100.00;101296.81;4977218;28;20130;-92
2022/05/13 04:18:07;;;;;;;34.08;32.17;;;;;;;13.45;100.00;101307.19;4977099;28;20062;-92
2022/05/13 04:20:35;;;;;;;31.75;29.77;;;;;;;13.44;100.00;101296.75;4978016;28;20054;-93
2022/05/13 04:23:02;;;;;;;33.35;31.25;;;;;;;13.67;100.00;101297.06;4974349;28;20070;-92
2022/05/13 04:25:28;;;;;;;30.30;28.17;;;;;;;13.67;100.00;101296.25;4978099;28;20050;-92
2022/05/13 04:27:55;;;;;;;29.08;27.27;;;;;;;13.81;100.00;101302.34;4976317;28;20105;-93
2022/05/13 04:30:22;;;;;;;32.28;30.25;;;;;;;13.95;100.00;101310.09;4978063;28;20042;-93
2022/05/13 04:32:49;;;;;;;29.75;28.02;;;;;;;13.97;100.00;101302.66;4978095;28;20046;-93
2022/05/13 04:35:17;;;;;;;32.25;30.35;;;;;;;14.07;100.00;101306.72;4978263;28;20424;-93
2022/05/13 04:37:44;;;;;;;32.65;30.52;;;;;;;14.17;100.00;101301.72;4978318;28;20504;-93
2022/05/13 04:40:12;;;;;;;32.22;30.00;;;;;;;14.12;100.00;101291.69;4977162;28;20055;-93
2022/05/13 04:42:50;;;;;;;33.47;31.38;;;;;;;14.27;100.00;101291.38;4976711;28;20427;-93
2022/05/13 04:45:23;;;;;;;32.13;30.13;;;;;;;14.51;100.00;101292.47;4973190;28;20043;-92
2022/05/13 04:50:37;;;;;;;34.00;30.98;;;;;;;14.75;100.00;101293.50;4976058;28;20050;-93
2022/05/13 04:53:05;;;;;;;32.53;30.40;;;;;;;14.73;100.00;101294.75;4971038;28;20487;-93
2022/05/13 04:55:32;;;;;;;30.20;28.40;;;;;;;14.97;100.00;101298.44;4975977;28;20050;-92
2022/05/13 04:57:59;;;;;;;35.50;32.80;;;;;;;15.21;100.00;101291.41;4974860;28;20416;-94
2022/05/13 05:00:26;;;;;;;32.17;30.08;;;;;;;15.39;100.00;101295.94;4975939;28;20046;-92
2022/05/13 05:02:53;;;;;;;35.47;33.08;;;;;;;15.35;100.00;101298.25;4974112;28;20056;-92
2022/05/13 05:05:20;;;;;;;33.08;30.98;;;;;;;15.51;100.00;101296.81;4976682;28;20047;-92
2022/05/13 05:07:49;;;;;;;32.22;30.05;;;;;;;15.72;100.00;101300.94;4978326;28;20500;-93
2022/05/13 05:10:18;;;;;;;32.50;30.15;;;;;;;15.74;100.00;101290.81;4974832;28;20054;-91
2022/05/13 05:12:45;;;;;;;28.45;26.73;;;;;;;15.95;100.00;101297.53;4977417;28;20421;-93
2022/05/13 05:15:12;;;;;;;30.52;28.83;;;;;;;16.18;100.00;101289.56;4976718;28;20054;-93
2022/05/13 05:17:39;;;;;;;30.52;28.02;;;;;;;16.18;100.00;101292.25;4971914;28;20058;-93
2022/05/13 05:20:07;;;;;;;28.40;26.65;;;;;;;16.53;100.00;101301.41;4977700;28;20055;-93
2022/05/13 05:22:34;;;;;;;30.17;27.70;;;;;;;16.72;100.00;101292.22;4978357;28;20077;-93
2022/05/13 05:25:05;;;;;;;28.65;26.77;;;;;;;16.78;100.00;101294.00;4974225;28;20050;-93
2022/05/13 05:27:35;;;;;;;31.13;29.33;;;;;;;16.93;100.00;101297.03;4980473;28;20534;-92
2022/05/13 05:30:03;;;;;;;31.35;29.35;;;;;;;17.04;100.00;101305.31;4975983;28;20109;-91
2022/05/13 05:32:30;;;;;;;32.13;30.25;;;;;;;17.34;100.00;101295.25;4971846;28;20082;-92
2022/05/13 05:34:56;;;;;;;29.83;28.02;;;;;;;17.42;100.00;101298.59;4976938;28;20568;-93
2022/05/13 05:37:23;;;;;;;31.30;29.40;;;;;;;17.65;100.00;101293.16;4974095;28;20429;-92
2022/05/13 05:39:50;;;;;;;29.92;28.05;;;;;;;17.82;100.00;101287.84;4980691;28;20046;-93
2022/05/13 05:42:19;;;;;;;32.60;30.38;;;;;;;18.05;100.00;101295.81;4976516;28;20126;-92
2022/05/13 05:44:54;;;;;;;32.60;30.60;;;;;;;18.30;100.00;101295.44;4977395;28;20050;-94
2022/05/13 05:47:30;;;;;;;31.80;29.80;;;;;;;18.50;100.00;101297.66;4978046;28;20542;-92
2022/05/13 05:49:59;;;;;;;32.75;30.77;;;;;;;18.51;100.00;101287.72;4976907;28;20055;-93
2022/05/13 05:52:29;;;;;;;32.95;30.38;;;;;;;18.81;100.00;101290.09;4974876;28;20058;-93
2022/05/13 05:57:56;;;;;;;33.20;30.98;;;;;;;19.01;100.00;101286.88;4970778;28;20070;-92
2022/05/13 06:00:23;;;;;;;33.50;31.50;;;;;;;19.23;100.00;101293.09;4975432;28;20055;-93
2022/05/13 06:02:50;;;;;;;33.05;31.00;;;;;;;19.31;100.00;101293.75;4972573;28;20049;-93
2022/05/13 06:05:17;;;;;;;31.45;29.50;;;;;;;19.52;100.00;101287.53;4977622;28;20054;-93
2022/05/13 06:07:45;;;;;;;33.17;31.30;;;;;;;19.83;100.00;101296.00;4978104;28;20448;-93
2022/05/13 06:10:13;;;;;;;31.58;29.67;;;;;;;19.97;100.00;101283.75;4974322;28;20401;-92
2022/05/13 06:12:40;;;;;;;31.25;29.25;;;;;;;20.21;100.00;101286.94;4979293;28;20054;-93
2022/05/13 06:15:10;;;;;;;33.45;31.30;;;;;;;20.47;100.00;101273.63;4978773;28;20133;-93
2022/05/13 06:17:43;;;;;;;30.00;28.20;;;;;;;20.60;100.00;101281.31;4974828;28;20055;-93
2022/05/13 06:20:10;;;;;;;;;;;;;;;20.66;100.00;101282.97;4968444;28;20074;-93
2022/05/13 06:22:37;;;;;;;31.25;29.35;;;;;;;20.69;100.00;101276.25;4980728;28;19941;-92
2022/05/13 06:25:05;;;;;;;31.75;29.65;;;;;;;20.92;100.00;101281.25;4983456;28;20520;-92
2022/05/13 06:27:32;;;;;;;34.00;31.88;;;;;;;21.23;100.00;101284.13;4980839;28;20047;-92
2022/05/13 06:29:59;;;;;;;32.28;30.10;;;;;;;21.18;100.00;101287.63;4979390;28;20061;-93
2022/05/13 06:32:27;;;;;;;32.53;30.35;;;;;;;21.46;100.00;101285.59;4976715;28;20047;-93
2022/05/13 06:34:55;;;;;;;31.95;29.85;;;;;;;21.35;100.00;101282.00;4978419;28;20054;-92
2022/05/13 06:37:21;;;;;;;31.48;29.58;;;;;;;21.30;100.00;101276.56;4972930;28;20053;-93
2022/05/13 06:39:48;;;;;;;31.88;29.77;;;;;;;21.18;100.00;101268.72;4977194;28;20047;-93
2022/05/13 06:42:16;;;;;;;30.35;28.67;;;;;;;21.45;100.00;101270.44;4978358;28;20049;-93
2022/05/13 06:44:43;;;;;;;28.67;27.08;;;;;;;21.39;100.00;101269.63;4980571;28;20063;-93
2022/05/13 06:47:11;;;;;;;29.85;28.05;;;;;;;21.67;100.00;101268.38;4978866;28;20070;-92
2022/05/13 06:49:39;;;;;;;30.05;28.45;;;;;;;21.38;100.00;101261.78;4978145;28;20110;-94
2022/05/13 06:52:07;;;;;;;31.83;29.80;;;;;;;21.56;100.00;101261.31;4980024;28;20050;-92
2022/05/13 06:54:34;;;;;;;32.97;30.98;;;;;;;22.01;100.00;101262.47;4973170;28;20051;-93
2022/05/13 06:57:02;;;;;;;29.35;27.75;;;;;;;21.46;100.00;101258.56;4977972;28;20050;-92
2022/05/13 06:59:39;;;;;;;37.10;35.00;;;;;;;22.52;100.00;101267.91;4980491;28;20480;-93
2022/05/13 07:02:06;;;;;;;32.03;30.13;;;;;;;22.59;100.00;101249.47;4977834;28;20589;-93
2022/05/13 07:04:34;;;;;;;33.35;31.45;;;;;;;23.07;100.00;101257.25;4982488;28;20051;-93
2022/05/13 07:07:02;;;;;;;31.35;29.15;;;;;;;21.83;100.00;101249.47;4983304;28;20079;-93
2022/05/13 07:09:30;;;;;;;29.63;27.83;;;;;;;21.96;100.00;101255.16;4978334;28;20058;-94
2022/05/13 07:11:56;;;;;;;31.73;29.35;;;;;;;21.10;100.00;101247.59;4980991;28;20070;-93
2022/05/13 07:14:23;;;;;;;30.65;28.65;;;;;;;21.57;100.00;101260.22;4982416;28;20050;-93
2022/05/13 07:16:50;;;;;;;34.92;32.72;;;;;;;22.16;100.00;101248.16;4980872;28;20046;-94
2022/05/13 07:19:17;;;;;;;30.48;28.60;;;;;;;21.59;100.00;101270.78;4980613;28;20110;-94
2022/05/13 07:21:44;;;;;;;29.98;28.15;;;;;;;21.79;100.00;101265.41;4981232;28;20058;-94
2022/05/13 07:24:13;;;;;;;30.00;28.40;;;;;;;21.67;100.00;101265.66;4983153;28;20417;-93
2022/05/13 07:27:05;;;;;;;30.80;28.83;;;;;;;21.51;100.00;101269.38;4985753;28;20063;-93
2022/05/13 07:29:32;;;;;;;31.30;29.25;;;;;;;22.42;100.00;101257.06;4993386;28;20050;-93
2022/05/13 07:31:59;;;;;;;30.85;29.02;;;;;;;21.66;100.00;101264.03;4981343;28;20106;-93
2022/05/13 07:34:26;;;;;;;30.02;28.25;;;;;;;22.53;100.00;101258.69;4981320;28;20059;-93
2022/05/13 07:36:54;;;;;;;30.58;28.77;;;;;;;21.89;100.00;101264.63;4981302;28;20141;-93
2022/05/13 07:42:19;;;;;;;30.13;28.33;;;;;;;20.94;100.00;101265.63;4939219;29;20086;-93
2022/05/13 07:44:45;;;;;;;29.85;28.15;;;;;;;21.16;100.00;101267.34;4969959;28;20051;-93
2022/05/13 07:47:12;;;;;;;31.15;29.02;;;;;;;21.23;100.00;101259.81;4980720;28;20125;-94
2022/05/13 07:49:42;;;;;;;30.20;28.15;;;;;;;21.87;96.68;101258.66;4980530;28;20059;-93
2022/05/13 07:52:10;;;;;;;30.60;28.67;;;;;;;23.93;87.88;101264.16;4981963;28;20078;-94
2022/05/13 07:54:40;;;;;;;30.77;28.75;;;;;;;22.76;94.06;101256.50;4982164;28;20110;-94
2022/05/13 07:57:08;;;;;;;29.75;27.95;;;;;;;21.65;93.77;101267.00;4980620;28;20057;-94
2022/05/13 08:00:24;;;;;;;30.10;28.25;;;;;;;23.46;95.21;101267.38;4981198;28;20077;-93
2022/05/13 08:02:22;;;;;;;31.05;29.15;;;;;;;23.20;85.61;101266.69;4980513;28;20082;-93
2022/05/13 08:04:49;;;;;;;33.45;31.52;;;;;;;22.16;85.78;101269.78;4979556;28;20055;-94
2022/05/13 08:07:16;;;;;;;31.77;29.98;;;;;;;21.07;97.02;101266.22;4980615;28;20059;-93
2022/05/13 08:09:45;;;;;;;31.02;29.02;;;;;;;21.26;100.00;101254.69;4979348;28;20055;-94
2022/05/13 08:12:12;;;;;;;31.13;29.25;;;;;;;21.22;100.00;101261.69;4978701;28;20062;-94
2022/05/13 08:14:39;;;;;;;30.90;29.02;;;;;;;23.90;87.31;101253.03;4979217;28;20051;-94
2022/05/13 08:17:06;;;;;;;30.70;29.10;;;;;;;22.85;81.50;101254.84;4980723;28;20055;-93
2022/05/13 08:19:33;;;;;;;31.23;29.40;;;;;;;22.99;81.05;101258.63;4982365;28;20046;-94
2022/05/13 08:22:00;;;;;;;32.45;29.95;;;;;;;24.42;76.67;101246.94;4982114;28;20050;-93
2022/05/13 08:24:27;;;;;;;32.22;30.42;;;;;;;24.39;72.57;101236.63;4983382;28;20046;-93
2022/05/13 08:26:55;;;;;;;33.60;31.77;;;;;;;23.65;71.99;101249.38;4983690;28;20516;-93
2022/05/13 08:29:22;;;;;;;31.92;30.23;;;;;;;21.71;88.33;101245.13;4980377;28;20519;-93
2022/05/13 08:31:50;;;;;;;31.95;30.15;;;;;;;22.66;88.61;101246.47;4982899;28;20413;-94
2022/05/13 08:34:17;;;;;;;32.42;30.33;;;;;;;21.55;95.47;101240.78;4980476;28;20515;-94
2022/05/13 08:36:46;;;;;;;31.98;29.70;;;;;;;22.95;85.63;101241.31;4980488;28;20051;-93
2022/05/13 08:39:14;;;;;;;33.33;31.52;;;;;;;21.50;90.65;101238.03;4980072;28;20074;-93
2022/05/13 08:41:58;;;;;;;31.65;30.00;;;;;;;24.48;81.52;101223.28;4980362;28;20043;-93
2022/05/13 08:44:28;;;;;;;32.47;30.77;;;;;;;25.00;75.39;101234.38;4974695;28;20050;-93
2022/05/13 08:47:01;;;;;;;32.22;30.23;;;;;;;24.87;70.80;101230.44;4980472;28;20508;-94
2022/05/13 08:49:46;;;;;;;32.03;30.30;;;;;;;23.48;71.55;101240.78;4985257;28;20050;-93
2022/05/13 08:55:20;;;;;;;30.85;29.25;;;;;;;21.94;82.62;101232.19;4981060;28;20065;-93
2022/05/13 08:57:51;;;;;;;32.22;30.20;;;;;;;21.96;88.84;101233.50;4978899;28;20051;-94
2022/05/13 09:00:28;;;;;;;31.55;29.30;;;;;;;21.86;91.16;101230.81;4983128;28;20055;-93
2022/05/13 09:03:06;;;;;;;32.08;30.33;;;;;;;22.39;78.91;101227.84;4978795;28;20405;-92
2022/05/13 09:05:40;;;;;;;31.75;29.95;;;;;;;23.18;83.92;101231.75;4981714;28;20118;-92
2022/05/13 09:08:08;;;;;;;31.08;29.40;;;;;;;23.09;75.63;101223.38;4985664;28;20070;-92
2022/05/13 09:10:39;;;;;;;31.88;29.98;;;;;;;23.66;85.37;101226.59;4982610;28;20074;-93
2022/05/13 09:13:14;;;;;;;32.00;30.20;;;;;;;25.80;64.60;101217.25;4983357;28;20512;-93
2022/05/13 09:15:48;;;;;;;32.58;30.70;;;;;;;26.01;63.66;101212.31;4982342;28;20110;-93
2022/05/13 09:18:24;;;;;;;31.67;29.67;;;;;;;25.59;58.76;101222.97;4982483;28;20047;-94
2022/05/13 09:20:58;;;;;;;30.77;28.80;;;;;;;24.74;62.54;101214.84;4980042;28;20051;-93
2022/05/13 09:23:27;;;;;;;31.23;29.25;;;;;;;23.23;70.59;101217.34;4982218;28;20057;-93
2022/05/13 09:26:08;;;;;;;32.28;30.23;;;;;;;25.21;60.35;101211.31;4980731;28;20055;-93
2022/05/13 09:28:37;;;;;;;33.92;31.92;;;;;;;26.43;54.64;101207.75;4983298;28;20522;-93
2022/05/13 09:31:19;;;;;;;32.40;29.98;;;;;;;26.55;51.56;101212.75;4983017;28;20053;-93
2022/05/13 09:33:50;;;;;;;32.65;30.65;;;;;;;25.38;55.56;101204.56;4981286;28;20050;-93
2022/05/13 09:36:35;;;;;;;31.95;30.15;;;;;;;26.72;54.43;101199.34;4982360;28;20054;-94
2022/05/13 09:39:22;;;;;;;31.95;30.15;;;;;;;26.53;53.54;101190.44;4984510;28;20101;-92
2022/05/13 09:41:52;;;;;;;32.22;30.30;;;;;;;26.81;47.60;101180.34;4977837;28;20051;-93
2022/05/13 09:44:22;;;;;;;32.20;30.40;;;;;;;27.27;47.09;101185.66;4984641;28;20049;-93
2022/05/13 09:46:59;;;;;;;30.70;29.02;;;;;;;26.60;51.41;101183.50;4992816;28;20114;-93
2022/05/13 09:49:36;;;;;;;33.60;31.75;;;;;;;26.67;54.99;101174.94;4990144;28;20051;-92
2022/05/13 09:52:28;;;;;;;31.88;30.17;;;;;;;26.63;53.51;101182.09;4989695;28;20034;-93
2022/05/13 09:55:11;;;;;;;32.10;30.23;;;;;;;25.79;52.28;101170.19;4978547;28;20058;-91
2022/05/13 09:57:52;;;;;;;33.00;31.13;;;;;;;25.75;57.67;101165.63;4976860;28;20053;-87
2022/05/13 10:00:53;;;;;;;30.92;29.13;;;;;;;26.76;53.86;101164.13;4975657;28;20436;-91
2022/05/13 10:03:24;;;;;;;31.23;29.35;;;;;;;25.93;54.16;101153.94;4977145;28;20103;-91
2022/05/13 10:05:58;;;;;;;31.90;29.90;;;;;;;26.32;55.93;101151.88;4969351;28;20062;-90
2022/05/13 10:13:57;;;;;;;31.33;29.42;;;;;;;26.83;49.08;101165.31;4976180;28;20129;-90
2022/05/13 10:14:37;;;;;;;34.75;32.75;;;;;;;26.20;58.42;101136.03;4974574;28;20046;-92
2022/05/13 10:17:17;;;;;;;33.90;31.80;;;;;;;27.02;51.16;101139.84;4977083;28;20510;-92
2022/05/13 10:19:54;;;;;;;36.60;34.53;;;;;;;25.36;59.93;101145.84;4973351;28;20050;-91
2022/05/13 10:22:30;;;;;;;37.60;35.50;;;;;;;25.46;59.84;101146.78;4977030;28;20065;-90
2022/05/13 10:25:05;;;;;;;37.38;35.28;;;;;;;25.09;62.28;101137.53;4977290;28;20054;-90
2022/05/13 10:27:38;;;;;;;36.88;34.85;;;;;;;25.81;58.31;101131.81;4980119;28;20811;-91
2022/05/13 10:32:45;;;;;;;35.63;33.67;;;;;;;25.86;57.59;101128.22;5048805;23;20375;-88
2022/05/13 10:35:19;;;;;;;36.50;33.72;;;;;;;26.12;56.63;101126.66;4981640;28;20050;-88
2022/05/13 10:38:02;;;;;;;33.30;31.27;;;;;;;25.79;61.82;101121.22;4976917;28;20058;-88
2022/05/13 10:40:35;;;;;;;35.03;33.13;;;;;;;24.39;67.94;101119.09;4956778;28;20062;-87
2022/05/13 10:43:14;;;;;;;36.72;34.47;;;;;;;23.22;77.81;101119.00;4969644;28;20471;-88
2022/05/13 10:45:45;;;;;;;34.03;32.03;;;;;;;24.22;77.71;101103.25;4973646;28;20070;-87
2022/05/13 10:48:26;;;;;;;33.38;31.67;;;;;;;25.88;63.51;101107.78;4976161;28;20467;-87
2022/05/13 10:51:08;;;;;;;36.33;34.33;;;;;;;24.36;69.78;101103.38;4971718;28;20050;-87
2022/05/13 10:54:04;;;;;;;33.45;31.38;;;;;;;25.97;64.54;101094.28;4970526;28;20051;-89
2022/05/13 10:56:41;;;;;;;33.20;31.20;;;;;;;27.53;56.37;101090.41;4973426;28;20055;-89
2022/05/13 10:59:22;;;;;;;34.97;32.78;;;;;;;24.09;69.98;101088.47;4975386;28;20055;-88
2022/05/13 11:02:00;;;;;;;34.03;31.95;;;;;;;23.93;79.88;101093.25;4974717;28;20050;-87
2022/05/13 11:04:36;;;;;;;32.13;30.13;;;;;;;23.90;74.11;101080.25;4972016;28;20039;-87
2022/05/13 11:07:30;;;;;;;31.55;29.55;;;;;;;23.61;75.50;101079.41;4971658;28;20046;-88
2022/05/13 11:10:10;;;;;;;33.03;31.02;;;;;;;27.65;57.13;101070.72;4971557;28;20069;-88
2022/05/13 11:12:57;;;;;;;32.22;30.15;;;;;;;28.31;49.23;101074.41;4973093;28;20383;-87
2022/05/13 11:15:38;;;;;;;30.67;28.50;;;;;;;28.16;50.53;101071.31;4972844;28;20082;-88
2022/05/13 11:18:16;;;;;;;31.25;29.35;;;;;;;27.64;49.06;101069.94;4971352;28;20058;-88
2022/05/13 11:21:05;;;;;;;31.65;29.95;;;;;;;27.94;51.05;101073.00;4967916;28;20054;-88
2022/05/13 11:27:06;;;;;;;32.65;30.42;;;;;;;27.80;49.63;101055.91;4970666;28;20053;-87
2022/05/13 11:29:43;;;;;;;30.48;28.60;;;;;;;29.07;46.65;101058.81;4971983;28;20054;-87
2022/05/13 11:32:25;;;;;;;31.38;29.60;;;;;;;27.18;52.79;101057.44;4973599;28;20454;-88
2022/05/13 11:35:21;;;;;;;33.27;31.37;;;;;;;27.56;52.55;101045.34;4972024;28;20133;-87
2022/05/13 11:38:02;;;;;;;30.77;28.98;;;;;;;26.83;54.97;101042.69;4969089;28;20774;-88
2022/05/13 11:41:10;;;;;;;31.35;29.45;;;;;;;29.22;48.03;101028.25;4964826;28;20073;-87
2022/05/13 11:43:47;;;;;;;31.70;30.00;;;;;;;28.60;46.49;101031.31;4944908;29;20066;-86
2022/05/13 11:46:35;;;;;;;32.38;30.38;;;;;;;25.89;55.75;101029.69;4946069;28;20094;-86
2022/05/13 11:49:11;;;;;;;31.83;29.83;;;;;;;25.16;58.68;101023.84;4942071;29;20051;-87
2022/05/13 11:52:24;;;;;;;33.13;31.10;;;;;;;25.78;57.11;101029.00;4954864;28;20126;-87
2022/05/13 11:55:18;;;;;;;34.08;31.90;;;;;;;24.90;60.45;101023.41;4935790;29;20056;-86
2022/05/13 11:57:55;;;;;;;34.10;32.15;;;;;;;26.99;50.51;101021.38;4961096;28;20071;-89
2022/05/13 12:00:36;;;;;;;32.42;30.58;;;;;;;28.16;51.44;101005.81;4952167;28;20059;-87
2022/05/13 12:03:19;;;;;;;34.42;32.40;;;;;;;27.51;51.02;101004.56;4975995;28;20122;-87
2022/05/13 12:09:14;;;;;;;33.90;31.98;;;;;;;27.38;52.40;100987.16;4976420;28;20134;-87
2022/05/13 12:12:12;;;;;;;35.88;33.97;;;;;;;27.43;54.28;100980.78;4977557;28;20455;-88